Time;durP1;ratioP1;P1;durP2;ratioP2;P2;SDS_P1;SDS_P2;PMS_P1;PMS_P2;Temp;Humidity;BMP_temperature;BMP_pressure;BME280_temperature;BME280_humidity;BME280_pressure;Samples;Min_cycle;Max_cycle;Signal;HPM_P1;HPM_P2
2022/12/11 00:02:21;;;;;;;42.25;17.67;;;;;;;15.85;55.88;92547.56;5056766;28;20346;-83
2022/12/11 00:04:46;;;;;;;32.03;16.27;;;;;;;16.25;55.42;92548.41;5056691;28;20033;-83
2022/12/11 00:07:11;;;;;;;47.50;18.42;;;;;;;16.35;55.01;92555.00;5056684;28;20028;-83
2022/12/11 00:09:37;;;;;;;43.50;19.60;;;;;;;16.06;55.81;92557.84;5055137;28;20033;-84
2022/12/11 00:12:04;;;;;;;51.90;19.90;;;;;;;16.43;55.50;92566.50;5056429;28;20069;-83
2022/12/11 00:14:30;;;;;;;46.22;19.83;;;;;;;16.51;55.60;92576.09;5055477;28;20028;-84
2022/12/11 00:16:56;;;;;;;52.63;20.05;;;;;;;16.34;56.04;92569.34;5055125;28;20021;-84
2022/12/11 00:19:21;;;;;;;53.78;21.00;;;;;;;16.45;55.42;92574.84;5056556;28;20033;-83
2022/12/11 00:21:46;;;;;;;51.42;20.30;;;;;;;16.40;55.20;92574.00;5055182;28;20108;-84
2022/12/11 00:24:12;;;;;;;43.17;17.27;;;;;;;16.36;55.54;92575.81;5056515;28;20032;-84
2022/12/11 00:26:38;;;;;;;36.55;15.98;;;;;;;16.62;55.31;92579.72;5056505;28;20063;-84
2022/12/11 00:29:22;;;;;;;39.33;16.95;;;;;;;17.00;54.71;92585.34;5055300;28;20119;-84
2022/12/11 00:31:47;;;;;;;36.67;16.27;;;;;;;16.58;55.58;92597.41;5054772;28;20033;-84
2022/12/11 00:34:12;;;;;;;49.58;18.85;;;;;;;15.91;56.01;92593.00;5056175;28;20393;-84
2022/12/11 00:36:38;;;;;;;44.90;18.17;;;;;;;16.56;56.95;92589.03;5056386;28;20033;-84
2022/12/11 00:39:04;;;;;;;618.30;38.25;;;;;;;16.39;56.04;92590.97;5056349;28;20078;-84
2022/12/11 00:41:31;;;;;;;35.00;15.15;;;;;;;16.54;57.30;92592.03;5055113;28;20036;-84
2022/12/11 00:43:56;;;;;;;36.78;15.93;;;;;;;16.55;56.18;92587.50;5058881;28;20033;-84
2022/12/11 00:46:21;;;;;;;42.03;18.13;;;;;;;16.57;56.36;92582.66;5060160;28;20116;-84
2022/12/11 00:48:48;;;;;;;35.88;16.60;;;;;;;16.96;55.63;92582.59;5060065;28;20036;-84
2022/12/11 00:51:14;;;;;;;41.53;15.60;;;;;;;16.18;57.02;92588.66;5058561;28;20041;-84
2022/12/11 00:53:40;;;;;;;28.58;14.20;;;;;;;17.08;55.94;92578.28;5058576;28;20362;-84
2022/12/11 00:56:15;;;;;;;32.00;14.57;;;;;;;17.70;54.73;92579.25;5059663;28;20051;-84
2022/12/11 00:58:41;;;;;;;34.53;14.13;;;;;;;17.06;54.42;92591.84;5041719;28;20115;-84
2022/12/11 01:01:13;;;;;;;30.05;13.75;;;;;;;17.45;54.34;92584.94;5058258;28;20063;-84
2022/12/11 01:03:38;;;;;;;29.85;13.27;;;;;;;17.25;55.74;92566.47;5058530;28;20029;-84
2022/12/11 01:06:05;;;;;;;26.98;12.80;;;;;;;17.37;54.71;92573.47;5059768;28;20032;-84
2022/12/11 01:08:30;;;;;;;62.55;15.00;;;;;;;17.44;54.92;92578.09;5058462;28;20112;-84
2022/12/11 01:11:08;;;;;;;32.88;16.33;;;;;;;17.28;54.67;92572.94;5058289;28;20120;-84
2022/12/11 01:13:33;;;;;;;35.08;15.68;;;;;;;17.00;54.84;92574.75;5058246;28;20119;-84
2022/12/11 01:15:59;;;;;;;36.20;15.70;;;;;;;16.71;54.82;92568.91;5058443;28;20434;-84
2022/12/11 01:18:25;;;;;;;45.88;17.25;;;;;;;16.14;55.99;92566.69;5059536;28;20039;-84
2022/12/11 01:20:50;;;;;;;41.13;16.00;;;;;;;16.76;55.67;92573.91;5058227;28;20028;-84
2022/12/11 01:23:16;;;;;;;36.63;16.17;;;;;;;16.91;55.36;92571.53;5058292;28;20075;-84
2022/12/11 01:25:42;;;;;;;33.88;13.82;;;;;;;17.15;55.59;92585.56;5059364;28;20079;-84
2022/12/11 01:28:08;;;;;;;59.25;14.85;;;;;;;17.61;52.84;92590.84;5059375;28;20040;-84
2022/12/11 01:30:34;;;;;;;195.45;20.15;;;;;;;16.53;55.54;92587.84;5059190;28;20037;-84
2022/12/11 01:33:00;;;;;;;32.13;14.88;;;;;;;16.88;55.72;92583.59;5058039;28;20166;-84
2022/12/11 01:35:25;;;;;;;34.65;16.33;;;;;;;17.22;54.10;92588.34;5058291;28;20485;-84
2022/12/11 01:37:51;;;;;;;81.97;18.55;;;;;;;16.71;54.39;92586.66;5059182;28;20033;-84
2022/12/11 01:40:18;;;;;;;65.07;16.23;;;;;;;17.00;55.81;92587.19;5057748;28;20476;-84
2022/12/11 01:42:43;;;;;;;35.25;16.38;;;;;;;16.60;55.97;92581.94;5059074;28;20033;-84
2022/12/11 01:45:30;;;;;;;59.25;14.60;;;;;;;17.61;54.66;92587.44;5057809;28;20036;-84
2022/12/11 01:48:05;;;;;;;31.25;14.80;;;;;;;17.62;53.94;92581.78;5058672;28;20074;-84
2022/12/11 01:50:35;;;;;;;55.78;23.10;;;;;;;17.62;54.27;92573.84;5058291;28;20381;-84
2022/12/11 01:53:03;;;;;;;43.03;17.58;;;;;;;17.57;54.26;92579.44;5077066;28;20036;-85
2022/12/11 01:55:31;;;;;;;48.58;19.98;;;;;;;17.28;53.17;92592.22;5077888;28;20052;-84
2022/12/11 01:57:57;;;;;;;29.65;15.40;;;;;;;17.41;54.71;92594.69;5062555;28;20037;-85
2022/12/11 02:00:47;;;;;;;29.92;14.82;;;;;;;18.07;53.56;92595.34;5057429;28;20041;-85
2022/12/11 02:03:13;;;;;;;31.02;14.98;;;;;;;17.58;53.66;92590.81;5054809;28;20036;-84
2022/12/11 02:05:50;;;;;;;34.70;16.83;;;;;;;17.98;53.14;92584.19;5057492;28;20052;-85
2022/12/11 02:08:16;;;;;;;36.50;15.95;;;;;;;17.46;53.19;92583.81;5057219;28;20051;-85
2022/12/11 02:11:19;;;;;;;53.03;22.45;;;;;;;17.47;52.91;92577.41;5057172;28;20123;-85
2022/12/11 02:13:53;;;;;;;204.93;21.23;;;;;;;17.26;53.98;92578.59;5057296;28;20055;-85
2022/12/11 02:16:33;;;;;;;46.58;18.88;;;;;;;17.80;54.05;92583.97;5057338;28;20032;-84
2022/12/11 02:19:46;;;;;;;45.20;20.42;;;;;;;17.85;53.16;92593.47;5072189;28;20039;-84
2022/12/11 02:22:28;;;;;;;47.92;21.65;;;;;;;18.26;53.03;92579.66;5076014;28;20123;-84
2022/12/11 02:25:42;;;;;;;51.42;20.20;;;;;;;18.47;52.72;92571.97;5077129;28;20040;-84
2022/12/11 02:28:19;;;;;;;48.35;20.50;;;;;;;18.43;52.35;92570.38;5068808;28;20052;-84
2022/12/11 02:30:54;;;;;;;47.55;21.13;;;;;;;18.58;52.47;92566.81;5076510;28;20031;-84
2022/12/11 02:33:25;;;;;;;46.15;21.00;;;;;;;18.43;52.64;92563.22;5076952;28;20056;-84
2022/12/11 02:35:51;;;;;;;51.20;21.23;;;;;;;18.23;52.99;92560.72;5076640;28;20024;-84
2022/12/11 02:38:22;;;;;;;192.35;23.13;;;;;;;18.13;53.20;92561.34;5076482;28;20036;-84
2022/12/11 02:40:49;;;;;;;1553.40;79.32;;;;;;;17.20;53.22;92553.53;5076394;28;20036;-84
2022/12/11 02:43:15;;;;;;;947.15;50.90;;;;;;;16.96;54.08;92552.75;5077911;28;20156;-84
2022/12/11 02:45:41;;;;;;;888.22;46.13;;;;;;;16.98;54.95;92545.22;5059623;28;20032;-84
2022/12/11 02:48:08;;;;;;;775.97;45.30;;;;;;;16.61;55.91;92545.69;5076319;28;20032;-84
2022/12/11 02:50:37;;;;;;;133.05;22.23;;;;;;;16.90;55.76;92538.25;5076555;28;20123;-84
2022/12/11 02:53:05;;;;;;;173.52;25.20;;;;;;;17.06;55.17;92544.22;5076299;28;20045;-84
2022/12/11 02:55:31;;;;;;;59.45;20.40;;;;;;;16.74;55.79;92554.25;5076450;28;20040;-84
2022/12/11 02:58:19;;;;;;;53.58;22.80;;;;;;;17.58;53.23;92557.16;5076469;28;20062;-84
2022/12/11 03:00:45;;;;;;;48.53;21.63;;;;;;;17.19;54.40;92565.22;5076095;28;20456;-84
2022/12/11 03:03:11;;;;;;;54.03;21.20;;;;;;;17.41;54.47;92563.69;5076116;28;20406;-84
2022/12/11 03:05:37;;;;;;;100.20;22.67;;;;;;;16.70;55.32;92559.47;5075281;28;20036;-84
2022/12/11 03:08:02;;;;;;;66.00;21.33;;;;;;;17.57;54.44;92558.25;5075971;28;20178;-85
2022/12/11 03:10:28;;;;;;;47.70;21.58;;;;;;;17.17;54.10;92560.31;5075839;28;20025;-84
2022/12/11 03:12:54;;;;;;;61.92;22.95;;;;;;;17.48;53.96;92565.69;5076144;28;20047;-84
2022/12/11 03:15:22;;;;;;;60.03;23.85;;;;;;;15.65;59.70;92567.88;5075912;28;20033;-84
2022/12/11 03:18:00;;;;;;;56.60;24.10;;;;;;;15.88;60.31;92568.00;5076162;28;20032;-84
2022/12/11 03:20:40;;;;;;;59.08;21.45;;;;;;;17.63;56.39;92569.31;5075780;28;20119;-84
2022/12/11 03:23:18;;;;;;;66.90;24.77;;;;;;;17.59;55.21;92560.56;5075983;28;20319;-84
2022/12/11 03:25:46;;;;;;;609.38;43.10;;;;;;;16.82;55.25;92555.88;5077198;28;20120;-84
2022/12/11 03:28:26;;;;;;;53.88;19.92;;;;;;;18.08;53.83;92557.09;5076027;28;20479;-84
2022/12/11 03:30:52;;;;;;;54.95;20.77;;;;;;;17.17;54.08;92562.16;5076691;28;20086;-84
2022/12/11 03:33:39;;;;;;;61.85;22.77;;;;;;;17.61;54.23;92553.78;5075616;28;20048;-84
2022/12/11 03:36:08;;;;;;;54.92;22.08;;;;;;;17.49;53.82;92560.03;5075858;28;20147;-84
2022/12/11 03:38:46;;;;;;;51.70;22.60;;;;;;;17.89;52.45;92547.34;5075835;28;20386;-84
2022/12/11 03:41:14;;;;;;;49.45;20.90;;;;;;;18.23;53.47;92538.75;5075543;28;20028;-84
2022/12/11 03:43:40;;;;;;;59.70;21.75;;;;;;;18.27;53.26;92549.38;5075806;28;20040;-84
2022/12/11 03:46:06;;;;;;;151.20;23.48;;;;;;;17.95;53.31;92551.25;5075451;28;20040;-84
2022/12/11 03:48:35;;;;;;;242.20;27.48;;;;;;;17.63;54.19;92554.19;5076878;28;20063;-84
2022/12/11 03:51:04;;;;;;;95.88;21.42;;;;;;;18.21;53.28;92555.00;5075230;28;20438;-84
2022/12/11 03:53:30;;;;;;;55.67;20.65;;;;;;;17.19;53.80;92554.63;5076826;28;20043;-84
2022/12/11 03:55:57;;;;;;;328.33;28.77;;;;;;;16.75;54.99;92556.53;5075324;28;20040;-84
2022/12/11 03:58:22;;;;;;;48.10;19.77;;;;;;;15.73;57.11;92569.59;5077130;28;20036;-84
2022/12/11 04:00:47;;;;;;;56.10;23.42;;;;;;;14.61;63.71;92565.00;5075516;28;20059;-85
2022/12/11 04:03:13;;;;;;;57.67;20.77;;;;;;;15.84;61.12;92583.78;5076793;28;20039;-84
2022/12/11 04:05:44;;;;;;;61.50;21.17;;;;;;;16.97;57.76;92578.06;5075536;28;20342;-85
2022/12/11 04:08:10;;;;;;;43.03;15.02;;;;;;;16.62;56.13;92571.78;5075475;28;20043;-84
2022/12/11 04:10:35;;;;;;;16.60;7.00;;;;;;;14.76;57.97;92575.94;5076627;28;20442;-84
2022/12/11 04:13:01;;;;;;;18.52;7.20;;;;;;;14.62;58.71;92587.63;5075471;28;20125;-84
2022/12/11 04:15:26;;;;;;;11.93;4.57;;;;;;;14.18;60.19;92588.28;5076410;28;20119;-84
2022/12/11 04:26:06;;;;;;;12.00;4.53;;;;;;;15.78;56.25;92574.59;5080321;28;20075;-84
2022/12/11 04:28:31;;;;;;;7.28;2.90;;;;;;;15.04;56.38;92551.41;5079050;28;20033;-84
2022/12/11 04:30:57;;;;;;;8.25;3.83;;;;;;;14.81;57.21;92550.09;5080000;28;20028;-84
2022/12/11 04:33:22;;;;;;;7.70;3.53;;;;;;;15.90;54.66;92557.13;5079183;28;20040;-84
2022/12/11 04:35:47;;;;;;;8.73;3.25;;;;;;;15.77;55.83;92565.16;5080416;28;20032;-84
2022/12/11 04:38:13;;;;;;;6.28;2.70;;;;;;;16.15;54.75;92576.16;5080302;28;20032;-84
2022/12/11 04:40:38;;;;;;;3.33;1.30;;;;;;;14.74;56.17;92570.25;5080223;28;20036;-84
2022/12/11 04:43:04;;;;;;;4.82;1.58;;;;;;;15.82;53.26;92569.41;5078636;28;20036;-84
2022/12/11 04:45:29;;;;;;;7.53;3.45;;;;;;;16.09;52.92;92562.44;5079012;28;20064;-84
2022/12/11 04:47:54;;;;;;;23.20;9.38;;;;;;;15.53;55.96;92561.59;5080144;28;20039;-84
2022/12/11 04:50:20;;;;;;;42.80;10.65;;;;;;;14.54;56.62;92555.03;5079971;28;20098;-84
2022/12/11 04:52:45;;;;;;;48.65;11.02;;;;;;;15.93;54.38;92538.75;5079834;28;20078;-84
2022/12/11 04:55:11;;;;;;;75.10;12.73;;;;;;;16.39;53.41;92546.03;5078533;28;20025;-85
2022/12/11 04:57:37;;;;;;;27.83;10.48;;;;;;;16.51;53.92;92550.44;5062077;28;20036;-84
2022/12/11 05:00:08;;;;;;;24.35;8.95;;;;;;;16.86;53.50;92542.72;5079555;28;20497;-85
2022/12/11 05:02:38;;;;;;;28.02;10.52;;;;;;;16.20;54.96;92544.16;5078685;28;20389;-84
2022/12/11 05:05:05;;;;;;;28.90;10.98;;;;;;;15.60;55.71;92533.84;5061571;28;20028;-84
2022/12/11 05:07:30;;;;;;;22.20;10.68;;;;;;;16.30;54.87;92523.59;5079407;28;20052;-84
2022/12/11 05:09:56;;;;;;;28.17;11.15;;;;;;;16.67;52.98;92529.19;5078428;28;20434;-84
2022/12/11 05:12:21;;;;;;;26.83;11.35;;;;;;;16.03;53.52;92568.34;5078159;28;20491;-84
2022/12/11 05:14:50;;;;;;;22.40;9.93;;;;;;;16.59;53.90;92559.28;5062262;28;20021;-84
2022/12/11 05:17:16;;;;;;;22.05;10.00;;;;;;;15.96;54.90;92567.09;5058385;28;20040;-85
2022/12/11 05:19:41;;;;;;;19.63;8.98;;;;;;;16.12;54.13;92561.00;5059404;28;20029;-85
2022/12/11 05:22:07;;;;;;;21.20;9.68;;;;;;;15.72;53.37;92554.84;5059500;28;20035;-84
2022/12/11 05:24:32;;;;;;;25.55;10.57;;;;;;;14.87;55.23;92555.13;5059420;28;20025;-84
2022/12/11 05:26:58;;;;;;;24.15;10.48;;;;;;;14.83;56.46;92560.31;5059080;28;20025;-85
2022/12/11 05:29:23;;;;;;;22.02;9.05;;;;;;;15.38;55.84;92559.72;5058485;28;20039;-85
2022/12/11 05:31:48;;;;;;;23.33;9.35;;;;;;;15.35;55.71;92560.44;5057919;28;20470;-85
2022/12/11 05:34:14;;;;;;;27.13;11.35;;;;;;;15.17;56.18;92557.34;5058104;28;20060;-85
2022/12/11 05:36:40;;;;;;;27.58;11.23;;;;;;;15.11;56.53;92562.91;5059231;28;20106;-85
2022/12/11 05:39:05;;;;;;;30.10;10.63;;;;;;;15.37;55.55;92561.63;5059179;28;20107;-84
2022/12/11 05:41:31;;;;;;;21.30;9.57;;;;;;;15.09;56.44;92559.06;5059029;28;20109;-85
2022/12/11 05:43:57;;;;;;;17.88;7.30;;;;;;;15.49;55.75;92566.03;5057887;28;20430;-84
2022/12/11 05:46:25;;;;;;;18.70;7.78;;;;;;;15.95;55.06;92567.44;5067673;28;20472;-85
2022/12/11 05:49:38;;;;;;;24.15;9.27;;;;;;;17.00;52.72;92560.75;5071790;28;20055;-84
2022/12/11 05:52:04;;;;;;;16.10;6.30;;;;;;;16.52;51.69;92548.53;5058426;28;20094;-85
2022/12/11 05:54:29;;;;;;;9.32;4.75;;;;;;;16.24;52.46;92558.22;5058860;28;20037;-85
2022/12/11 05:56:55;;;;;;;10.55;5.13;;;;;;;15.99;54.04;92551.66;5074659;28;20107;-85
2022/12/11 05:59:20;;;;;;;7.43;4.22;;;;;;;16.46;52.15;92545.41;5078575;28;20451;-85
2022/12/11 06:01:45;;;;;;;8.13;3.85;;;;;;;15.33;53.85;92544.16;5078720;28;20032;-84
2022/12/11 06:04:12;;;;;;;12.35;5.63;;;;;;;15.89;55.03;92534.47;5078727;28;20039;-84
2022/12/11 06:06:39;;;;;;;35.80;9.38;;;;;;;15.83;53.77;92542.63;5076780;28;20477;-84
2022/12/11 06:12:27;;;;;;;9.70;4.72;;;;;;;15.99;52.19;92555.06;5078171;28;20064;-84
2022/12/11 06:18:14;;;;;;;9.52;4.78;;;;;;;15.93;51.50;92551.16;5078204;28;20059;-84
2022/12/11 06:20:39;;;;;;;6.68;3.13;;;;;;;15.60;52.63;92561.00;5078337;28;20087;-84
2022/12/11 06:23:05;;;;;;;5.60;3.00;;;;;;;15.74;52.55;92557.13;5076752;28;20070;-84
2022/12/11 06:25:30;;;;;;;5.57;2.85;;;;;;;15.77;51.63;92564.38;5077124;28;20039;-84
2022/12/11 06:27:56;;;;;;;9.05;4.70;;;;;;;15.57;52.44;92563.56;5077022;28;20032;-84
2022/12/11 06:30:22;;;;;;;6.47;3.92;;;;;;;15.93;51.58;92561.72;5076976;28;20024;-84
2022/12/11 06:32:48;;;;;;;7.68;3.60;;;;;;;15.52;52.87;92575.91;5076885;28;20035;-84
2022/12/11 06:35:13;;;;;;;6.07;3.75;;;;;;;15.97;51.13;92576.53;5076537;28;20032;-84
2022/12/11 06:37:41;;;;;;;10.95;4.95;;;;;;;15.31;52.54;92581.44;5078036;28;20036;-84
2022/12/11 06:40:08;;;;;;;14.55;7.05;;;;;;;16.04;51.13;92589.13;5076435;28;20033;-85
2022/12/11 06:42:34;;;;;;;12.77;6.85;;;;;;;15.76;52.51;92589.25;5077001;28;20349;-85
2022/12/11 06:44:59;;;;;;;9.18;5.15;;;;;;;16.12;51.29;92590.06;5076730;28;20035;-84
2022/12/11 06:47:28;;;;;;;11.77;6.22;;;;;;;15.22;53.40;92584.25;5077886;28;20028;-84
2022/12/11 06:49:55;;;;;;;11.73;6.15;;;;;;;15.24;54.10;92586.56;5077692;28;20102;-84
2022/12/11 06:52:24;;;;;;;18.77;9.40;;;;;;;16.16;52.71;92587.50;5076434;28;20033;-84
2022/12/11 06:54:50;;;;;;;19.35;9.27;;;;;;;14.45;55.44;92590.53;5076489;28;20032;-84
2022/12/11 06:57:16;;;;;;;24.20;10.40;;;;;;;16.05;52.99;92595.16;5077683;28;20086;-84
2022/12/11 06:59:42;;;;;;;21.58;10.32;;;;;;;16.13;51.96;92594.22;5076027;28;20032;-85
2022/12/11 07:02:15;;;;;;;20.42;10.73;;;;;;;16.35;50.93;92607.88;5077355;28;20036;-85
2022/12/11 07:04:40;;;;;;;18.98;10.15;;;;;;;16.15;51.95;92605.22;5076132;28;20032;-87
2022/12/11 07:07:06;;;;;;;21.73;11.80;;;;;;;16.27;51.45;92609.59;5076245;28;20028;-86
2022/12/11 07:09:32;;;;;;;28.80;13.60;;;;;;;16.23;51.06;92609.53;5077468;28;20068;-86
2022/12/11 07:11:57;;;;;;;25.10;12.68;;;;;;;15.64;51.76;92606.72;5076950;28;20427;-86
2022/12/11 07:14:23;;;;;;;27.05;13.48;;;;;;;16.29;51.58;92607.41;5072123;28;20346;-87
2022/12/11 07:16:48;;;;;;;32.00;15.45;;;;;;;16.34;51.44;92612.41;5073053;28;20032;-87
2022/12/11 07:19:14;;;;;;;28.60;14.77;;;;;;;16.70;51.18;92616.84;5072256;28;20389;-86
2022/12/11 07:21:39;;;;;;;24.80;12.60;;;;;;;16.59;49.54;92619.28;5072545;28;20100;-87
2022/12/11 07:24:05;;;;;;;27.17;14.40;;;;;;;16.56;50.86;92622.63;5073017;28;20307;-88
2022/12/11 07:26:31;;;;;;;33.75;15.63;;;;;;;16.36;50.01;92625.28;5057676;28;20052;-88
2022/12/11 07:28:57;;;;;;;30.48;14.75;;;;;;;16.47;50.73;92631.53;5057607;28;20029;-86
2022/12/11 07:31:24;;;;;;;28.83;13.32;;;;;;;15.76;52.40;92637.53;5075588;28;20457;-87
2022/12/11 07:34:01;;;;;;;31.10;13.45;;;;;;;16.35;50.23;92627.13;5065593;28;20025;-86
2022/12/11 07:36:27;;;;;;;23.85;12.48;;;;;;;16.34;51.40;92632.75;5074881;28;20039;-87
2022/12/11 07:38:53;;;;;;;27.55;13.50;;;;;;;16.99;50.12;92639.34;5075770;28;20032;-87
2022/12/11 07:41:19;;;;;;;30.25;14.05;;;;;;;16.98;49.52;92648.38;5075935;28;20025;-87
2022/12/11 07:43:44;;;;;;;28.42;14.50;;;;;;;15.45;51.84;92643.59;5074427;28;20046;-87
2022/12/11 07:46:19;;;;;;;28.10;14.07;;;;;;;16.64;51.20;92651.50;5056257;28;20102;-86
2022/12/11 07:48:48;;;;;;;26.83;13.98;;;;;;;16.57;51.15;92651.38;5055569;28;20036;-86
2022/12/11 07:51:28;;;;;;;38.75;15.68;;;;;;;16.25;52.22;92657.53;5054861;28;20139;-86
2022/12/11 07:54:00;;;;;;;27.98;13.68;;;;;;;17.04;51.51;92659.47;5055449;28;20099;-86
2022/12/11 07:56:26;;;;;;;30.10;14.95;;;;;;;17.15;50.65;92667.59;5055617;28;20029;-86
2022/12/11 07:58:52;;;;;;;33.35;15.25;;;;;;;16.22;50.76;92674.06;5055496;28;20136;-86
2022/12/11 08:01:23;;;;;;;24.23;13.52;;;;;;;16.74;50.57;92676.63;5056650;28;20065;-86
2022/12/11 08:03:49;;;;;;;23.08;12.48;;;;;;;16.16;50.61;92669.38;5063098;28;20024;-86
2022/12/11 08:06:15;;;;;;;22.95;12.45;;;;;;;16.68;52.40;92672.75;5075302;28;20056;-86
2022/12/11 08:08:41;;;;;;;23.85;12.50;;;;;;;17.26;50.39;92673.88;5075151;28;20036;-86
2022/12/11 08:11:10;;;;;;;25.00;12.65;;;;;;;17.45;50.57;92669.63;5076231;28;20024;-86
2022/12/11 08:13:36;;;;;;;27.55;13.70;;;;;;;17.12;50.08;92676.25;5075190;28;20342;-87
2022/12/11 08:16:11;;;;;;;25.55;13.93;;;;;;;16.93;50.93;92681.16;5076967;28;20033;-86
2022/12/11 08:18:37;;;;;;;46.72;19.20;;;;;;;16.77;50.66;92673.28;5058859;28;20032;-86
2022/12/11 08:21:10;;;;;;;62.75;27.05;;;;;;;16.15;52.62;92679.19;5075047;28;20039;-86
2022/12/11 08:23:35;;;;;;;97.10;34.42;;;;;;;15.55;53.69;92680.78;5075326;28;20047;-86
2022/12/11 08:26:06;;;;;;;95.30;32.30;;;;;;;15.99;53.30;92683.72;5074874;28;20442;-86
2022/12/11 08:28:31;;;;;;;99.78;34.17;;;;;;;16.11;53.86;92680.97;5075400;28;20082;-86
2022/12/11 08:30:58;;;;;;;96.60;34.30;;;;;;;15.95;52.71;92681.78;5075142;28;20033;-86
2022/12/11 08:33:23;;;;;;;91.80;34.30;;;;;;;15.39;53.86;92690.56;5074958;28;20060;-86
2022/12/11 08:35:49;;;;;;;93.68;34.90;;;;;;;15.66;50.43;92686.34;5076330;28;20406;-86
2022/12/11 08:38:14;;;;;;;80.28;33.10;;;;;;;15.97;52.44;92694.63;5076497;28;20043;-86
2022/12/11 08:40:40;;;;;;;73.30;29.95;;;;;;;16.92;50.71;92694.72;5074788;28;20035;-86
2022/12/11 08:43:05;;;;;;;76.20;31.13;;;;;;;16.27;49.96;92696.78;5072900;28;20484;-86
2022/12/11 08:45:30;;;;;;;69.95;30.73;;;;;;;17.26;49.00;92702.97;5054966;28;20048;-86
2022/12/11 08:47:58;;;;;;;63.72;27.23;;;;;;;17.07;48.51;92709.81;5056266;28;20029;-86
2022/12/11 08:50:24;;;;;;;57.42;26.10;;;;;;;16.54;49.40;92732.13;5055000;28;20076;-86
2022/12/11 08:52:50;;;;;;;48.50;23.90;;;;;;;15.99;48.87;92734.66;5054944;28;20041;-87
2022/12/11 08:55:15;;;;;;;47.13;20.48;;;;;;;15.71;48.65;92732.06;5056198;28;20099;-86
2022/12/11 08:57:40;;;;;;;47.63;19.38;;;;;;;15.66;50.84;92733.09;5056219;28;20378;-87
2022/12/11 09:00:08;;;;;;;44.10;18.40;;;;;;;15.52;49.22;92728.97;5054836;28;20100;-87
2022/12/11 09:02:33;;;;;;;38.78;16.92;;;;;;;16.00;48.72;92740.72;5055279;28;20439;-90
2022/12/11 09:04:59;;;;;;;35.65;16.10;;;;;;;16.18;48.88;92747.19;5058363;28;20072;-87
2022/12/11 09:07:25;;;;;;;36.13;17.02;;;;;;;15.88;49.00;92755.50;5075470;28;20033;-88
2022/12/11 09:09:53;;;;;;;34.35;15.45;;;;;;;16.92;46.57;92761.63;5059893;28;20037;-88
2022/12/11 09:12:18;;;;;;;40.10;16.60;;;;;;;15.94;47.56;92774.53;5059865;28;20451;-88
2022/12/11 09:14:44;;;;;;;31.00;14.50;;;;;;;16.15;47.39;92776.19;5059887;28;20044;-86
2022/12/11 09:17:09;;;;;;;29.23;14.25;;;;;;;16.21;46.46;92783.50;5059342;28;20036;-85
2022/12/11 09:19:35;;;;;;;29.23;13.48;;;;;;;15.66;48.35;92776.09;5059256;28;20031;-87
2022/12/11 09:22:00;;;;;;;23.25;11.73;;;;;;;15.36;47.65;92773.03;5059673;28;20033;-86
2022/12/11 09:24:26;;;;;;;26.58;12.55;;;;;;;16.75;45.43;92776.00;5059479;28;20044;-86
2022/12/11 09:26:51;;;;;;;28.17;12.85;;;;;;;17.29;45.19;92776.38;5059437;28;20090;-86
2022/12/11 09:29:17;;;;;;;31.20;14.05;;;;;;;16.13;46.95;92775.72;5059119;28;20091;-85
2022/12/11 09:31:42;;;;;;;24.90;12.07;;;;;;;16.91;46.44;92775.19;5057960;28;20041;-87
2022/12/11 09:34:11;;;;;;;33.53;12.77;;;;;;;16.18;49.16;92770.22;5068414;28;20119;-86
2022/12/11 09:36:37;;;;;;;29.27;13.23;;;;;;;17.87;46.77;92766.09;5076503;28;20033;-86
2022/12/11 09:39:04;;;;;;;36.13;18.02;;;;;;;18.42;44.25;92770.38;5077989;28;20040;-86
2022/12/11 09:41:43;;;;;;;60.33;24.48;;;;;;;17.90;44.98;92779.38;5077487;28;20033;-85
2022/12/11 09:44:18;;;;;;;23.98;11.23;;;;;;;18.12;44.79;92774.47;5079124;28;20032;-86
2022/12/11 09:46:44;;;;;;;20.40;8.85;;;;;;;17.15;46.17;92778.75;5078629;28;20111;-86
2022/12/11 09:49:31;;;;;;;15.98;8.02;;;;;;;17.17;43.84;92779.94;5077836;28;20389;-85
2022/12/11 09:52:02;;;;;;;19.60;10.27;;;;;;;17.26;45.46;92779.72;5077599;28;20040;-86
2022/12/11 09:54:28;;;;;;;32.88;14.27;;;;;;;16.19;47.06;92785.69;5078872;28;20044;-85
2022/12/11 09:57:35;;;;;;;33.45;15.88;;;;;;;17.95;45.46;92780.97;5078943;28;20040;-86
2022/12/11 10:00:16;;;;;;;47.67;20.55;;;;;;;16.17;47.33;92773.97;5057537;28;20036;-86
2022/12/11 10:03:10;;;;;;;27.27;13.90;;;;;;;16.70;47.30;92776.28;5077597;28;20461;-86
2022/12/11 10:06:29;;;;;;;35.42;15.73;;;;;;;17.20;46.69;92771.28;5077496;28;20044;-86
2022/12/11 10:09:18;;;;;;;35.22;16.48;;;;;;;17.27;46.84;92768.03;5039961;28;20095;-86
2022/12/11 10:11:46;;;;;;;30.63;14.00;;;;;;;16.35;48.30;92755.84;5056065;28;20044;-85
2022/12/11 10:14:37;;;;;;;28.20;13.88;;;;;;;17.24;45.68;92752.84;5057274;28;20053;-87
2022/12/11 10:17:08;;;;;;;16.95;8.50;;;;;;;17.63;43.21;92758.09;5070987;28;20139;-87
2022/12/11 10:19:34;;;;;;;18.92;10.25;;;;;;;17.14;42.70;92748.09;5058683;28;20041;-86
2022/12/11 10:22:00;;;;;;;20.52;9.23;;;;;;;17.72;43.11;92741.22;5056872;28;20477;-86
2022/12/11 10:24:42;;;;;;;25.60;12.57;;;;;;;17.49;43.40;92744.59;5040104;28;20036;-87
2022/12/11 10:27:20;;;;;;;25.98;12.50;;;;;;;18.19;42.84;92737.47;5058565;28;20037;-87
2022/12/11 10:29:59;;;;;;;24.08;11.68;;;;;;;17.18;45.57;92746.28;5055395;28;20029;-87
2022/12/11 10:32:31;;;;;;;21.10;9.85;;;;;;;16.16;44.93;92746.75;5057224;28;20365;-87
2022/12/11 10:35:00;;;;;;;18.35;7.53;;;;;;;15.73;43.52;92750.97;5040496;28;20400;-89
2022/12/11 10:37:26;;;;;;;13.68;6.80;;;;;;;16.88;42.54;92749.44;5073347;28;20036;-88
2022/12/11 10:39:51;;;;;;;13.73;7.18;;;;;;;15.51;46.27;92742.53;5076975;28;20097;-89
2022/12/11 10:42:22;;;;;;;17.83;9.68;;;;;;;18.44;43.42;92739.72;5077031;28;20021;-88
2022/12/11 10:44:56;;;;;;;14.13;7.53;;;;;;;18.61;41.05;92732.38;5076975;28;20426;-89
2022/12/11 10:47:21;;;;;;;24.90;13.07;;;;;;;19.17;41.98;92730.09;5056461;28;20075;-88
2022/12/11 10:49:54;;;;;;;13.98;7.28;;;;;;;18.15;42.20;92731.34;5056365;28;20128;-88
2022/12/11 10:52:27;;;;;;;15.93;8.13;;;;;;;19.41;40.72;92747.41;5056245;28;20033;-89
2022/12/11 10:54:58;;;;;;;14.75;7.43;;;;;;;18.23;41.86;92748.91;5056511;28;20033;-88
2022/12/11 10:57:28;;;;;;;14.00;7.38;;;;;;;18.01;41.74;92741.69;5056886;28;20458;-88
2022/12/11 10:59:54;;;;;;;14.30;7.10;;;;;;;16.29;44.75;92755.38;5056336;28;20797;-89
2022/12/11 11:02:26;;;;;;;16.38;8.07;;;;;;;17.28;43.62;92766.91;5062296;28;20036;-89
2022/12/11 11:04:53;;;;;;;16.13;7.73;;;;;;;16.60;43.95;92763.59;5076342;28;20420;-89
2022/12/11 11:07:27;;;;;;;12.98;6.95;;;;;;;16.66;41.89;92764.88;5076595;28;20032;-89
2022/12/11 11:10:10;;;;;;;15.18;7.80;;;;;;;16.10;42.14;92756.06;5077344;28;20024;-88
2022/12/11 11:12:41;;;;;;;13.65;7.18;;;;;;;17.19;41.64;92763.69;5077177;28;20040;-89
2022/12/11 11:15:17;;;;;;;16.40;8.15;;;;;;;18.02;41.80;92759.13;5076388;28;20078;-88
2022/12/11 11:17:48;;;;;;;15.52;7.68;;;;;;;17.81;42.64;92762.94;5076219;28;20032;-89
2022/12/11 11:20:17;;;;;;;17.50;8.13;;;;;;;17.30;41.75;92759.38;5075958;28;20040;-89
2022/12/11 11:22:55;;;;;;;16.92;9.00;;;;;;;16.62;44.47;92764.00;5074802;28;20067;-89
2022/12/11 11:25:22;;;;;;;17.27;9.15;;;;;;;16.71;43.86;92763.81;5055845;28;20033;-88
2022/12/11 11:28:03;;;;;;;18.73;9.85;;;;;;;17.20;43.20;92783.75;5057172;28;20055;-89
2022/12/11 11:30:33;;;;;;;17.67;8.57;;;;;;;17.37;42.76;92766.69;5055739;28;20338;-89
2022/12/11 11:33:03;;;;;;;20.67;9.65;;;;;;;17.22;43.35;92769.06;5055840;28;20028;-88
2022/12/11 11:35:30;;;;;;;28.35;10.55;;;;;;;15.87;44.28;92767.19;5055947;28;20339;-88
2022/12/11 11:38:02;;;;;;;22.20;10.63;;;;;;;15.86;44.48;92765.63;5056120;28;20043;-89
2022/12/11 11:40:30;;;;;;;24.45;11.45;;;;;;;15.65;44.87;92764.00;5056520;28;20055;-88
2022/12/11 11:43:14;;;;;;;22.95;11.15;;;;;;;16.39;42.79;92768.03;5057219;28;20033;-88
2022/12/11 11:45:50;;;;;;;25.10;11.60;;;;;;;16.70;43.40;92765.72;5055807;28;20121;-88